Butterworth Airport
WMKB : now visible

Airfield :











YOU CAN JOIN US ON...

 
LOGIN :

Register | Disclaimer

   EN    FR    IT 

 









Legend :    VFR   Marginal VFR   IFR   Intensive IFR   Very Intensive IFR
Visi :
Ceiling :
>= 8 km
>= 3000ft
5 to 8 km
1000 to 3000 ft
1500m to 5 km
500 to 1000 ft
800 to 1500m
200 to 500 ft
< 800m
< 200 ft
Symbols :   Thunderstorms  Fog  Heavy snow  Heavy precipitations  Wind > 20 kt






- Airport Elevation : 11 ft
- IATA code : BWH


WMKB - Butterworth

CURRENT METAR :
  • 141400Z 07005KT 8000 FEW024 28/24 Q1009 NOSIG

EXPIRED METARs :
  • 141300Z VRB02KT 8000 FEW024 30/25 Q1009 NOSIG
  • 141200Z 15004KT 110V200 8000 FEW024 30/24 Q1008 NOSIG
  • 141100Z 11007KT 080V150 8000 -TSRA FEW017CB 30/24 Q1008 NOSIG
  • 141000Z VRB02KT 8000 TS FEW017CB 33/24 Q1006 NOSIG

TAF TAF WMKB
Valid from the 14 at 12:00 until the 15 at 12:00 UTC


141100Z 1412/1512 VRB02KT 8000 SCT024
TEMPO 1413/1414 6000 TSRA FEW017CB
WMFC FIR / Asia



MET'MAP, your aeronautical weather chart ! - Copyright ORBIFLY December 2007 - Disclaimer

ORBIFLY MET'MAP TEAM :

Programming & Development : Alexandra Zaïnal
Original concept : Baudouin d'Aumeries
Technical & hardware support : Manuel Goepfert
Assistance : Marc-Olivier Méhu




SOURCES & CREDITS :

   NOAA       Earth
Advisory